Time;durP1;ratioP1;P1;durP2;ratioP2;P2;SDS_P1;SDS_P2;PMS_P1;PMS_P2;Temp;Humidity;BMP_temperature;BMP_pressure;BME280_temperature;BME280_humidity;BME280_pressure;Samples;Min_cycle;Max_cycle;Signal;HPM_P1;HPM_P2
2022/07/14 00:00:21;;;;;;;11.70;3.38;;;13.30;99.90;;;;;;4945460;28;20138;-89
2022/07/14 00:02:47;;;;;;;11.32;4.03;;;13.20;99.90;;;;;;4942521;28;20039;-89
2022/07/14 00:05:13;;;;;;;13.27;3.80;;;13.20;99.90;;;;;;4953417;28;20051;-90
2022/07/14 00:07:39;;;;;;;11.40;4.28;;;13.20;99.90;;;;;;4942830;28;20169;-89
2022/07/14 00:10:05;;;;;;;10.38;3.67;;;13.20;99.90;;;;;;4954354;28;20118;-90
2022/07/14 00:12:31;;;;;;;11.13;4.00;;;13.20;99.90;;;;;;4959155;28;20057;-89
2022/07/14 00:14:57;;;;;;;14.55;4.15;;;13.20;99.90;;;;;;4943896;28;20048;-91
2022/07/14 00:17:23;;;;;;;11.23;3.58;;;13.20;99.90;;;;;;4944874;28;20039;-89
2022/07/14 00:19:48;;;;;;;9.75;3.45;;;13.20;99.90;;;;;;4959378;28;20406;-89
2022/07/14 00:22:17;;;;;;;13.35;3.97;;;13.10;99.90;;;;;;4943564;28;20097;-89
2022/07/14 00:24:43;;;;;;;15.75;4.35;;;13.10;99.90;;;;;;4930976;29;20138;-90
2022/07/14 00:27:08;;;;;;;9.18;3.80;;;13.10;99.90;;;;;;4961971;28;20126;-89
2022/07/14 00:29:35;;;;;;;9.80;3.70;;;13.10;99.90;;;;;;4945408;28;20229;-90
2022/07/14 00:32:08;;;;;;;13.43;3.90;;;13.10;99.90;;;;;;4956658;28;20105;-90
2022/07/14 00:34:33;;;;;;;12.98;4.20;;;13.00;99.90;;;;;;4946426;28;20038;-89
2022/07/14 00:36:59;;;;;;;12.82;3.80;;;13.00;99.90;;;;;;4959673;28;20030;-89
2022/07/14 00:39:26;;;;;;;11.98;3.72;;;12.90;99.90;;;;;;4943696;28;20430;-89
2022/07/14 00:41:52;;;;;;;10.38;3.83;;;12.90;99.90;;;;;;4960226;28;20046;-90
2022/07/14 00:44:18;;;;;;;12.80;4.13;;;12.80;99.90;;;;;;4941636;28;20047;-90
2022/07/14 00:46:44;;;;;;;15.20;4.30;;;12.70;99.90;;;;;;4939159;28;20047;-90
2022/07/14 00:49:10;;;;;;;16.42;4.00;;;12.80;1.00;;;;;;4943904;28;20046;-90
2022/07/14 00:51:36;;;;;;;11.93;4.18;;;12.70;1.00;;;;;;4941882;28;20109;-90
2022/07/14 00:54:01;;;;;;;13.68;4.38;;;12.80;1.00;;;;;;4945453;28;20047;-90
2022/07/14 00:56:27;;;;;;;14.63;4.30;;;12.80;1.00;;;;;;4947406;28;20206;-90
2022/07/14 00:58:53;;;;;;;17.98;4.07;;;12.80;1.00;;;;;;4946728;28;20034;-90
2022/07/14 01:01:19;;;;;;;13.38;4.35;;;12.80;1.00;;;;;;4945771;28;20598;-90
2022/07/14 01:03:45;;;;;;;10.23;4.18;;;12.70;1.00;;;;;;4956865;28;20496;-91
2022/07/14 01:06:10;;;;;;;11.95;4.32;;;12.70;1.00;;;;;;4943642;28;20133;-91
2022/07/14 01:08:36;;;;;;;12.43;4.10;;;12.60;1.00;;;;;;4959968;28;20043;-91
2022/07/14 01:11:10;;;;;;;18.48;4.43;;;12.50;99.90;;;;;;4949326;28;20043;-91
2022/07/14 01:13:37;;;;;;;8.98;3.63;;;12.50;99.90;;;;;;4945704;28;20066;-91
2022/07/14 01:16:04;;;;;;;11.07;4.00;;;12.40;99.90;;;;;;4960245;28;20046;-90
2022/07/14 01:18:33;;;;;;;12.35;3.88;;;12.30;99.90;;;;;;4942902;28;20077;-90
2022/07/14 01:20:59;;;;;;;12.18;3.90;;;12.30;1.00;;;;;;4946245;28;20466;-90
2022/07/14 01:23:25;;;;;;;10.85;4.10;;;12.20;1.00;;;;;;4960121;28;20043;-90
2022/07/14 01:25:50;;;;;;;9.82;4.00;;;12.20;1.00;;;;;;4963923;28;20039;-90
2022/07/14 01:28:16;;;;;;;12.88;4.38;;;12.10;1.00;;;;;;4955270;28;20051;-90
2022/07/14 01:30:42;;;;;;;12.93;4.40;;;12.20;1.00;;;;;;4960374;28;20130;-90
2022/07/14 01:33:08;;;;;;;14.18;4.50;;;12.20;1.00;;;;;;4946875;28;20082;-89
2022/07/14 01:35:33;;;;;;;15.75;5.35;;;12.20;1.00;;;;;;4972874;28;20125;-90
2022/07/14 01:37:59;;;;;;;11.40;4.68;;;12.30;22.20;;;;;;4957403;28;20483;-90
2022/07/14 01:40:25;;;;;;;13.48;5.00;;;12.20;2.50;;;;;;4960444;28;20027;-90
2022/07/14 01:42:51;;;;;;;12.35;4.15;;;12.20;99.90;;;;;;4959563;28;20491;-90
2022/07/14 01:45:16;;;;;;;14.38;4.32;;;12.20;70.80;;;;;;4960910;28;20090;-89
2022/07/14 01:47:42;;;;;;;13.60;4.90;;;12.20;92.30;;;;;;4943608;28;20084;-90
2022/07/14 01:50:08;;;;;;;15.00;4.85;;;12.20;96.30;;;;;;4945735;28;20047;-89
2022/07/14 01:52:34;;;;;;;14.10;5.43;;;12.20;99.90;;;;;;4943978;28;20241;-90
2022/07/14 01:54:59;;;;;;;13.05;5.18;;;12.20;99.90;;;;;;4948453;28;20050;-91
2022/07/14 01:57:25;;;;;;;13.40;4.22;;;12.10;29.20;;;;;;4962323;28;20051;-90
2022/07/14 01:59:54;;;;;;;12.60;4.72;;;12.00;1.00;;;;;;4945382;28;20126;-90
2022/07/14 02:02:19;;;;;;;11.13;4.80;;;11.90;1.00;;;;;;4947000;28;20054;-89
2022/07/14 02:04:45;;;;;;;14.57;4.85;;;11.90;1.00;;;;;;4946150;28;20038;-90
2022/07/14 02:07:11;;;;;;;15.40;5.30;;;11.90;24.30;;;;;;4946211;28;20047;-91
2022/07/14 02:12:28;;;;;;;11.55;4.90;;;11.70;1.00;;;;;;4944270;28;20106;-91
2022/07/14 02:14:53;;;;;;;10.68;4.13;;;11.80;49.00;;;;;;4946589;28;20379;-89
2022/07/14 02:17:19;;;;;;;10.60;3.80;;;11.70;1.00;;;;;;4946241;28;20134;-90
2022/07/14 02:19:45;;;;;;;7.53;3.85;;;11.60;1.00;;;;;;4945361;28;20165;-91
2022/07/14 02:22:11;;;;;;;11.07;5.05;;;11.60;1.00;;;;;;4945767;28;20038;-89
2022/07/14 02:24:36;;;;;;;11.23;4.95;;;11.60;15.30;;;;;;4945964;28;20150;-89
2022/07/14 02:27:05;;;;;;;15.93;4.70;;;11.70;99.60;;;;;;4942566;28;20039;-90
2022/07/14 02:29:31;;;;;;;12.52;5.28;;;11.70;99.90;;;;;;4943981;28;20042;-90
2022/07/14 02:31:57;;;;;;;9.80;4.88;;;11.60;99.90;;;;;;4961364;28;20042;-90
2022/07/14 02:34:24;;;;;;;15.93;4.95;;;11.60;99.90;;;;;;4946423;28;20122;-89
2022/07/14 02:36:50;;;;;;;15.88;4.85;;;11.70;99.90;;;;;;4945723;28;20808;-89
2022/07/14 02:39:16;;;;;;;12.40;5.00;;;11.60;99.90;;;;;;4944247;28;20039;-91
2022/07/14 02:41:42;;;;;;;12.25;5.07;;;11.60;99.90;;;;;;4960291;28;20518;-90
2022/07/14 02:44:11;;;;;;;13.52;5.00;;;11.40;94.00;;;;;;4950167;28;20054;-90
2022/07/14 02:46:37;;;;;;;12.70;5.28;;;11.40;99.90;;;;;;4946765;28;20039;-90
2022/07/14 02:49:04;;;;;;;15.43;5.28;;;11.50;99.90;;;;;;4954010;28;20165;-91
2022/07/14 02:51:30;;;;;;;13.15;5.85;;;11.50;99.90;;;;;;4945688;28;20053;-91
2022/07/14 02:53:56;;;;;;;13.18;5.45;;;11.40;99.90;;;;;;4939279;28;20047;-90
2022/07/14 02:56:21;;;;;;;12.27;5.53;;;11.40;99.90;;;;;;4975759;28;20069;-89
2022/07/14 02:58:50;;;;;;;16.58;5.75;;;11.20;99.90;;;;;;4935847;28;20242;-89
2022/07/14 03:01:17;;;;;;;13.68;5.93;;;11.30;99.90;;;;;;4945479;28;20054;-90
2022/07/14 03:03:43;;;;;;;13.70;6.05;;;11.40;99.90;;;;;;4939968;28;20158;-89
2022/07/14 03:06:11;;;;;;;20.20;6.03;;;11.30;99.90;;;;;;4946420;28;20266;-89
2022/07/14 03:08:37;;;;;;;10.70;5.40;;;11.30;99.90;;;;;;4944037;28;20043;-90
2022/07/14 03:11:03;;;;;;;17.60;6.13;;;11.30;99.90;;;;;;4943473;28;20034;-89
2022/07/14 03:13:29;;;;;;;13.77;5.35;;;11.30;99.90;;;;;;4935304;28;20047;-90
2022/07/14 03:15:55;;;;;;;13.15;6.05;;;11.30;99.90;;;;;;4945821;28;20100;-90
2022/07/14 03:18:20;;;;;;;16.60;5.78;;;11.20;99.90;;;;;;4939057;28;20042;-89
2022/07/14 03:20:46;;;;;;;12.15;4.95;;;11.20;99.90;;;;;;4940289;28;20046;-89
2022/07/14 03:23:12;;;;;;;10.98;5.00;;;11.20;99.90;;;;;;4953364;28;20041;-89
2022/07/14 03:25:42;;;;;;;9.90;5.63;;;11.20;99.90;;;;;;4950531;28;20098;-90
2022/07/14 03:28:08;;;;;;;13.52;5.13;;;11.20;99.90;;;;;;4941282;28;20051;-89
2022/07/14 03:30:33;;;;;;;13.93;5.55;;;11.20;99.90;;;;;;4943239;28;20041;-90
2022/07/14 03:33:01;;;;;;;13.43;5.10;;;11.10;99.90;;;;;;4942370;28;20050;-90
2022/07/14 03:35:27;;;;;;;10.88;5.05;;;11.10;99.90;;;;;;4944850;28;20241;-89
2022/07/14 03:37:54;;;;;;;12.25;5.13;;;11.00;99.90;;;;;;4937705;28;20039;-90
2022/07/14 03:40:20;;;;;;;13.48;6.18;;;11.10;99.90;;;;;;4958688;28;20416;-90
2022/07/14 03:42:51;;;;;;;11.70;5.03;;;11.00;99.90;;;;;;4942874;28;20468;-91
2022/07/14 03:45:17;;;;;;;10.02;4.93;;;11.00;99.90;;;;;;4956229;28;20138;-90
2022/07/14 03:47:42;;;;;;;7.63;5.13;;;11.00;99.90;;;;;;4952716;28;20158;-90
2022/07/14 03:50:11;;;;;;;12.48;5.75;;;11.10;99.90;;;;;;4944646;28;20047;-89
2022/07/14 03:52:36;;;;;;;12.48;5.80;;;11.10;99.90;;;;;;4934174;28;20065;-90
2022/07/14 03:55:03;;;;;;;10.73;5.63;;;11.10;99.90;;;;;;4946783;28;20452;-90
2022/07/14 03:57:28;;;;;;;11.55;5.35;;;11.10;99.90;;;;;;4959537;28;20038;-89
2022/07/14 03:59:54;;;;;;;7.40;4.75;;;11.10;99.90;;;;;;4940932;28;20043;-90
2022/07/14 04:02:21;;;;;;;13.73;5.47;;;11.10;99.90;;;;;;4943428;28;20109;-90
2022/07/14 04:04:46;;;;;;;12.52;5.57;;;11.10;99.90;;;;;;4940638;28;20038;-90
2022/07/14 04:07:12;;;;;;;11.30;5.07;;;11.20;99.90;;;;;;4961553;28;20466;-90
2022/07/14 04:09:38;;;;;;;12.82;4.85;;;11.20;99.90;;;;;;4945952;28;20783;-90
2022/07/14 04:12:04;;;;;;;10.20;4.70;;;11.10;99.90;;;;;;4959932;28;20089;-89
2022/07/14 04:14:32;;;;;;;10.50;4.90;;;11.20;99.90;;;;;;4958381;28;20035;-90
2022/07/14 04:16:58;;;;;;;11.88;4.57;;;11.20;99.90;;;;;;4943585;28;20342;-89
2022/07/14 04:19:24;;;;;;;10.82;4.80;;;11.20;99.90;;;;;;4954248;28;20039;-91
2022/07/14 04:21:50;;;;;;;9.82;5.07;;;11.30;99.90;;;;;;4943779;28;20118;-90
2022/07/14 04:24:16;;;;;;;10.82;5.70;;;11.30;99.90;;;;;;4954131;28;20506;-89
2022/07/14 04:26:42;;;;;;;8.70;5.22;;;11.40;99.90;;;;;;4945369;28;20290;-89
2022/07/14 04:29:09;;;;;;;9.18;4.65;;;11.50;99.90;;;;;;4961632;28;20047;-90
2022/07/14 04:31:37;;;;;;;11.15;4.85;;;11.50;99.90;;;;;;4963356;28;20055;-90
2022/07/14 04:34:04;;;;;;;11.88;5.13;;;11.60;94.70;;;;;;4963397;28;20054;-90
2022/07/14 04:36:30;;;;;;;11.77;5.55;;;11.70;97.50;;;;;;4947314;28;20035;-91
2022/07/14 04:38:56;;;;;;;12.50;5.20;;;11.80;99.90;;;;;;4964441;28;20042;-91
2022/07/14 04:41:23;;;;;;;11.20;4.88;;;11.90;42.50;;;;;;4947430;28;20035;-90
2022/07/14 04:43:49;;;;;;;11.95;5.40;;;12.10;52.40;;;;;;4940485;28;20422;-90
2022/07/14 04:46:15;;;;;;;9.77;4.75;;;12.10;55.20;;;;;;4945732;28;20065;-88
2022/07/14 04:54:09;;;;;;;15.35;5.35;;;12.30;1.00;;;;;;4962394;28;20101;-89
2022/07/14 04:56:34;;;;;;;10.68;5.70;;;12.50;1.00;;;;;;4963965;28;20054;-89
2022/07/14 04:59:03;;;;;;;12.38;5.18;;;12.50;1.00;;;;;;4958458;28;20042;-88
2022/07/14 05:01:29;;;;;;;11.95;4.60;;;12.60;1.00;;;;;;4961776;28;20054;-89
2022/07/14 05:03:54;;;;;;;11.68;4.88;;;12.60;1.00;;;;;;4946284;28;20468;-89
2022/07/14 05:06:20;;;;;;;10.07;5.00;;;12.70;1.00;;;;;;4945472;28;20050;-89
2022/07/14 05:08:49;;;;;;;9.60;4.72;;;12.80;1.00;;;;;;4936795;28;20102;-90
2022/07/14 05:11:14;;;;;;;10.75;4.75;;;12.90;99.90;;;;;;4946445;28;20518;-90
2022/07/14 05:13:40;;;;;;;8.00;4.32;;;12.80;99.90;;;;;;4947447;28;20043;-89
2022/07/14 05:16:07;;;;;;;11.15;5.15;;;12.90;99.90;;;;;;4978112;28;20109;-88
2022/07/14 05:18:32;;;;;;;8.52;4.53;;;13.00;99.90;;;;;;4940677;28;20131;-88
2022/07/14 05:20:58;;;;;;;10.95;4.57;;;13.10;99.90;;;;;;4945097;28;20554;-88
2022/07/14 05:23:23;;;;;;;7.25;4.20;;;13.20;99.90;;;;;;4943213;28;20046;-89
2022/07/14 05:25:49;;;;;;;9.75;4.90;;;13.30;99.90;;;;;;4961891;28;20031;-88
2022/07/14 05:28:15;;;;;;;8.80;4.50;;;13.40;99.90;;;;;;4951707;28;20414;-88
2022/07/14 05:30:40;;;;;;;9.00;4.55;;;13.50;99.90;;;;;;4943936;28;20034;-88
2022/07/14 05:33:07;;;;;;;6.85;4.38;;;13.60;99.90;;;;;;4956400;28;20167;-87
2022/07/14 05:35:33;;;;;;;7.00;4.25;;;13.70;99.90;;;;;;4940788;28;20039;-88
2022/07/14 05:38:01;;;;;;;8.73;4.28;;;13.70;99.90;;;;;;4942380;28;20391;-88
2022/07/14 05:40:27;;;;;;;8.82;4.53;;;13.90;99.90;;;;;;4974626;28;20079;-88
2022/07/14 05:42:53;;;;;;;5.75;4.13;;;14.00;99.90;;;;;;4954349;28;20043;-88
2022/07/14 05:45:18;;;;;;;10.15;4.30;;;14.10;99.90;;;;;;4951103;28;20050;-89
2022/07/14 05:47:44;;;;;;;10.02;4.43;;;14.20;99.90;;;;;;4957025;28;20146;-90
2022/07/14 05:50:10;;;;;;;6.63;3.65;;;14.30;99.90;;;;;;4945403;28;20046;-89
2022/07/14 05:52:36;;;;;;;6.47;3.65;;;14.40;99.90;;;;;;4942229;28;20125;-90
2022/07/14 05:55:05;;;;;;;7.55;3.53;;;14.50;99.90;;;;;;4944879;28;20045;-89
2022/07/14 05:57:30;;;;;;;7.85;3.78;;;14.60;99.90;;;;;;4958685;28;20260;-88
2022/07/14 05:59:59;;;;;;;6.43;3.65;;;14.70;99.90;;;;;;4944439;28;20061;-88
2022/07/14 06:02:24;;;;;;;8.65;3.75;;;14.90;99.90;;;;;;4956873;28;20097;-88
2022/07/14 06:04:50;;;;;;;7.97;3.47;;;14.90;99.90;;;;;;4944761;28;20055;-89
2022/07/14 06:07:16;;;;;;;9.30;3.25;;;15.10;99.90;;;;;;4944967;28;20035;-88
2022/07/14 06:09:47;;;;;;;6.00;3.00;;;15.10;99.90;;;;;;4950902;28;20039;-88
2022/07/14 06:12:13;;;;;;;7.80;3.00;;;15.30;28.50;;;;;;4961826;28;20039;-88
2022/07/14 06:14:40;;;;;;;6.90;2.90;;;15.40;93.00;;;;;;4958025;28;20427;-89
2022/07/14 06:17:06;;;;;;;6.63;2.70;;;15.40;32.90;;;;;;4943144;28;20061;-88
2022/07/14 06:19:32;;;;;;;7.68;2.60;;;15.60;1.00;;;;;;4939162;28;20486;-88
2022/07/14 06:21:58;;;;;;;8.43;2.70;;;15.60;1.00;;;;;;4946150;28;20038;-88
2022/07/14 06:24:23;;;;;;;6.82;2.50;;;15.70;1.00;;;;;;4960214;28;20054;-82
2022/07/14 06:26:49;;;;;;;6.28;2.35;;;15.80;1.00;;;;;;4943446;28;20043;-81
2022/07/14 06:29:15;;;;;;;12.32;3.08;;;15.90;1.00;;;;;;4940144;28;20640;-82
2022/07/14 06:31:40;;;;;;;7.57;2.13;;;16.00;1.00;;;;;;4953148;28;20046;-82
2022/07/14 06:34:06;;;;;;;8.23;2.30;;;16.10;1.00;;;;;;4943740;28;20047;-81
2022/07/14 06:36:32;;;;;;;9.25;1.90;;;16.30;1.00;;;;;;4956012;28;20046;-81
2022/07/14 06:38:59;;;;;;;7.60;2.00;;;16.30;99.90;;;;;;4945420;28;20039;-81
2022/07/14 06:41:24;;;;;;;8.52;2.38;;;16.60;1.00;;;;;;4941137;28;20057;-82
2022/07/14 06:43:50;;;;;;;6.60;1.85;;;16.60;99.90;;;;;;4939214;28;20051;-82
2022/07/14 06:46:17;;;;;;;5.72;1.40;;;16.50;99.90;;;;;;4956781;28;20047;-82
2022/07/14 06:48:43;;;;;;;5.57;1.45;;;16.60;99.90;;;;;;4930242;28;20349;-81
2022/07/14 06:51:09;;;;;;;5.80;1.58;;;16.80;99.90;;;;;;4955146;28;20047;-81
2022/07/14 06:53:35;;;;;;;4.63;1.33;;;16.80;99.90;;;;;;4941345;28;20514;-81
2022/07/14 06:56:01;;;;;;;6.05;1.55;;;16.80;99.90;;;;;;4935055;28;20035;-81
2022/07/14 06:58:30;;;;;;;6.82;1.55;;;16.90;99.90;;;;;;4953171;28;20522;-82
2022/07/14 07:00:56;;;;;;;4.10;1.70;;;16.90;99.90;;;;;;4940377;28;20419;-82
2022/07/14 07:03:22;;;;;;;5.90;1.38;;;17.00;99.90;;;;;;4963851;28;20055;-82
2022/07/14 07:08:31;;;;;;;4.93;1.27;;;17.30;99.90;;;;;;4951415;28;20090;-82
2022/07/14 07:11:00;;;;;;;6.25;1.58;;;17.50;99.90;;;;;;4958133;28;20045;-81
2022/07/14 07:13:28;;;;;;;6.07;1.73;;;17.30;99.90;;;;;;4937634;28;20355;-82
2022/07/14 07:15:54;;;;;;;4.97;1.50;;;17.30;99.90;;;;;;4942540;28;20083;-82
2022/07/14 07:18:20;;;;;;;6.93;1.60;;;17.70;99.90;;;;;;4939239;28;20059;-81
2022/07/14 07:20:45;;;;;;;3.33;1.00;;;17.80;99.90;;;;;;4943740;28;20097;-82
2022/07/14 07:23:11;;;;;;;6.05;1.40;;;17.50;99.90;;;;;;4956563;28;20051;-81
2022/07/14 07:25:37;;;;;;;3.97;1.00;;;17.60;99.90;;;;;;4942589;28;20074;-81
2022/07/14 07:28:03;;;;;;;5.40;1.23;;;17.90;81.30;;;;;;4953970;28;20031;-82
2022/07/14 07:30:29;;;;;;;3.17;0.98;;;17.80;99.90;;;;;;4942526;28;20114;-82
2022/07/14 07:32:55;;;;;;;3.17;0.77;;;17.60;61.70;;;;;;4954029;28;20130;-82
2022/07/14 07:35:20;;;;;;;6.28;1.38;;;17.80;41.10;;;;;;4957592;28;20518;-82
2022/07/14 07:37:47;;;;;;;5.40;1.48;;;18.20;29.70;;;;;;4953319;28;20111;-82
2022/07/14 07:40:14;;;;;;;3.58;1.02;;;18.40;1.00;;;;;;4942370;28;20039;-82
2022/07/14 07:42:40;;;;;;;1.30;0.63;;;18.80;11.10;;;;;;4954768;28;20039;-81
2022/07/14 07:45:07;;;;;;;3.90;1.08;;;18.30;1.00;;;;;;4951477;28;20046;-82
2022/07/14 07:47:33;;;;;;;4.28;1.08;;;18.10;6.20;;;;;;4944193;28;20430;-82
2022/07/14 07:49:59;;;;;;;1.88;0.70;;;18.10;1.00;;;;;;4947082;28;20049;-89
2022/07/14 07:52:25;;;;;;;3.63;1.10;;;18.20;1.00;;;;;;4957927;28;20039;-88
2022/07/14 07:54:51;;;;;;;4.55;1.00;;;18.20;1.00;;;;;;4938138;28;20371;-88
2022/07/14 07:57:17;;;;;;;2.97;0.55;;;18.00;1.00;;;;;;4971135;28;20035;-89
2022/07/14 07:59:42;;;;;;;3.72;1.00;;;18.50;1.00;;;;;;4943664;28;20404;-88
2022/07/14 08:02:08;;;;;;;5.22;2.20;;;18.80;1.00;;;;;;4943713;28;20058;-88
2022/07/14 08:04:34;;;;;;;4.13;1.13;;;18.90;1.00;;;;;;4946930;28;20681;-89
2022/07/14 08:07:00;;;;;;;2.60;0.70;;;18.70;1.00;;;;;;4946185;28;20126;-88
2022/07/14 08:09:25;;;;;;;3.30;0.80;;;19.20;1.00;;;;;;4936715;28;20570;-88
2022/07/14 08:11:51;;;;;;;2.95;0.90;;;19.30;1.00;;;;;;4948062;28;20101;-89
2022/07/14 08:17:01;;;;;;;4.65;1.23;;;19.10;1.00;;;;;;4954963;28;20062;-88
2022/07/14 08:19:27;;;;;;;6.25;1.35;;;19.30;1.00;;;;;;4948113;28;20038;-89
2022/07/14 08:21:54;;;;;;;4.90;1.40;;;19.50;1.00;;;;;;4945498;28;20120;-89
2022/07/14 08:24:20;;;;;;;3.60;0.98;;;19.30;1.00;;;;;;4940168;28;20043;-89
2022/07/14 08:26:46;;;;;;;3.92;0.90;;;19.30;1.00;;;;;;4948117;28;20549;-88
2022/07/14 08:29:13;;;;;;;3.05;1.40;;;19.30;1.00;;;;;;4957167;28;20067;-88
2022/07/14 08:31:38;;;;;;;2.80;1.13;;;19.70;1.00;;;;;;4976946;28;20526;-89
2022/07/14 08:34:04;;;;;;;2.28;0.98;;;19.80;1.00;;;;;;4946575;28;20039;-89
2022/07/14 08:36:30;;;;;;;3.67;0.85;;;19.40;1.00;;;;;;4947981;28;20041;-88
2022/07/14 08:38:56;;;;;;;2.28;0.98;;;19.20;1.00;;;;;;4953759;28;20043;-90
2022/07/14 08:41:23;;;;;;;2.80;0.88;;;19.30;1.00;;;;;;4948105;28;20577;-89
2022/07/14 08:43:51;;;;;;;4.10;1.15;;;19.20;1.00;;;;;;4942425;28;20337;-89
2022/07/14 08:46:18;;;;;;;3.80;0.90;;;19.10;99.90;;;;;;4944034;28;20081;-90
2022/07/14 08:48:46;;;;;;;2.25;0.80;;;19.60;99.90;;;;;;4945143;28;20057;-89
2022/07/14 08:51:12;;;;;;;3.38;0.68;;;20.00;99.90;;;;;;4972123;28;20213;-89
2022/07/14 08:53:38;;;;;;;2.78;0.88;;;20.10;99.90;;;;;;4955346;28;20408;-89
2022/07/14 08:56:04;;;;;;;2.53;0.80;;;20.40;99.90;;;;;;4957482;28;20046;-89
2022/07/14 08:58:33;;;;;;;2.83;0.77;;;20.40;99.90;;;;;;4942189;28;20046;-88
2022/07/14 09:00:59;;;;;;;5.97;1.13;;;20.40;99.90;;;;;;4942340;28;20761;-90
2022/07/14 09:03:25;;;;;;;2.85;0.70;;;20.60;99.90;;;;;;4944793;28;20118;-90
2022/07/14 09:05:51;;;;;;;3.88;0.57;;;20.20;99.90;;;;;;4955529;28;20259;-89
2022/07/14 09:08:17;;;;;;;2.78;0.80;;;20.30;99.90;;;;;;4945357;28;20027;-88
2022/07/14 09:10:45;;;;;;;4.53;1.13;;;20.20;99.90;;;;;;4944398;28;20559;-88
2022/07/14 09:13:21;;;;;;;4.78;0.95;;;19.80;99.90;;;;;;4969564;28;20072;-89
2022/07/14 09:15:49;;;;;;;2.17;0.70;;;19.70;99.90;;;;;;4937159;28;20050;-89
2022/07/14 09:18:26;;;;;;;5.25;0.90;;;20.20;99.90;;;;;;4947689;28;20054;-89
2022/07/14 09:20:54;;;;;;;3.55;1.50;;;20.60;99.90;;;;;;4957287;28;20043;-89
2022/07/14 09:23:37;;;;;;;2.47;0.60;;;20.60;99.90;;;;;;4942651;28;20039;-89
2022/07/14 09:26:17;;;;;;;5.75;0.88;;;21.20;99.90;;;;;;4947176;28;20097;-88
2022/07/14 09:28:46;;;;;;;2.25;0.70;;;21.70;99.90;;;;;;4955586;28;20114;-90
2022/07/14 09:31:25;;;;;;;4.60;1.10;;;21.20;99.90;;;;;;4946544;28;20038;-87
2022/07/14 09:33:55;;;;;;;3.72;0.73;;;20.60;99.90;;;;;;4932299;28;20089;-89
2022/07/14 09:36:31;;;;;;;1.45;0.47;;;20.30;99.90;;;;;;4945985;28;20042;-89
2022/07/14 09:39:03;;;;;;;3.30;0.77;;;20.20;99.90;;;;;;4936764;28;20094;-88
2022/07/14 09:41:32;;;;;;;2.70;0.82;;;20.20;99.90;;;;;;4946873;28;20041;-88
2022/07/14 09:44:24;;;;;;;3.78;0.60;;;20.00;99.90;;;;;;4945404;28;20046;-90
2022/07/14 09:46:54;;;;;;;4.28;0.95;;;20.60;99.90;;;;;;4943084;28;20062;-88
2022/07/14 09:49:33;;;;;;;3.88;0.90;;;21.00;99.90;;;;;;4960113;28;20042;-90
2022/07/14 09:52:06;;;;;;;2.97;1.02;;;20.80;99.90;;;;;;4935183;28;20305;-88
2022/07/14 09:54:56;;;;;;;2.20;0.70;;;20.60;99.90;;;;;;4938476;28;20101;-88
2022/07/14 09:57:25;;;;;;;3.35;0.90;;;20.80;99.90;;;;;;4958295;28;20050;-88
2022/07/14 09:59:55;;;;;;;5.40;1.10;;;20.60;99.90;;;;;;4945731;28;20050;-87
2022/07/14 10:02:28;;;;;;;3.33;0.70;;;20.50;99.90;;;;;;4934577;28;20105;-87
2022/07/14 10:05:04;;;;;;;3.88;0.80;;;20.40;99.90;;;;;;4946186;28;20046;-90
2022/07/14 10:07:41;;;;;;;3.60;1.00;;;20.70;99.90;;;;;;4960768;28;20047;-90
2022/07/14 10:10:09;;;;;;;3.47;0.70;;;21.10;99.90;;;;;;4943908;28;20367;-89
2022/07/14 10:12:36;;;;;;;4.32;0.73;;;21.10;99.90;;;;;;4944843;28;20118;-89
2022/07/14 10:15:13;;;;;;;1.33;0.68;;;21.40;99.90;;;;;;4935601;28;20055;-89
2022/07/14 10:17:42;;;;;;;3.88;0.90;;;21.20;99.90;;;;;;4952325;28;20049;-90
2022/07/14 10:20:12;;;;;;;1.42;0.80;;;21.40;99.90;;;;;;4928076;28;20077;-89
2022/07/14 10:22:40;;;;;;;3.35;0.80;;;20.80;99.90;;;;;;4941480;28;20045;-90
2022/07/14 10:25:09;;;;;;;2.90;0.60;;;21.30;99.90;;;;;;4970656;28;20039;-89
2022/07/14 10:27:42;;;;;;;2.25;0.65;;;21.40;99.90;;;;;;4969796;28;20050;-89
2022/07/14 10:30:10;;;;;;;3.78;0.75;;;21.30;99.90;;;;;;4944342;28;20046;-88
2022/07/14 10:33:08;;;;;;;3.10;0.77;;;21.20;99.90;;;;;;4940535;28;20051;-90
2022/07/14 10:35:46;;;;;;;3.00;0.90;;;21.40;99.90;;;;;;4934577;28;20055;-89
2022/07/14 10:38:31;;;;;;;3.50;0.75;;;21.20;99.90;;;;;;4951923;28;20531;-89
2022/07/14 10:41:04;;;;;;;2.88;0.77;;;21.00;99.90;;;;;;4954210;28;20130;-90
2022/07/14 10:43:41;;;;;;;3.70;0.85;;;21.40;99.90;;;;;;4938894;28;20051;-89
2022/07/14 10:46:07;;;;;;;4.43;0.70;;;21.90;99.90;;;;;;4941547;28;20255;-90
2022/07/14 10:48:37;;;;;;;3.33;0.80;;;21.60;99.90;;;;;;4941961;28;20054;-89
2022/07/14 10:51:21;;;;;;;1.50;0.60;;;21.30;99.90;;;;;;4943581;28;20045;-87
2022/07/14 10:54:13;;;;;;;2.00;0.70;;;21.10;99.90;;;;;;4948182;28;20499;-89
2022/07/14 10:56:42;;;;;;;3.53;0.80;;;21.20;99.90;;;;;;4941447;28;20101;-88
2022/07/14 10:59:26;;;;;;;3.97;0.80;;;20.90;99.90;;;;;;4938292;28;20431;-90
2022/07/14 11:02:10;;;;;;;2.75;0.88;;;20.70;99.90;;;;;;4952872;28;20078;-91
2022/07/14 11:07:40;;;;;;;4.03;0.82;;;20.20;99.90;;;;;;4956285;28;20138;-88
2022/07/14 11:10:18;;;;;;;1.50;0.70;;;20.30;99.90;;;;;;4935321;28;20367;-88
2022/07/14 11:12:59;;;;;;;3.30;0.70;;;20.10;99.90;;;;;;4938789;28;20448;-89
2022/07/14 11:16:02;;;;;;;2.92;1.15;;;20.00;99.90;;;;;;4951962;28;20506;-89
2022/07/14 11:18:41;;;;;;;5.22;0.90;;;19.90;99.90;;;;;;4930990;28;20077;-89
2022/07/14 11:21:14;;;;;;;2.22;0.85;;;20.00;99.90;;;;;;4956033;28;20046;-89
2022/07/14 11:23:46;;;;;;;5.63;0.98;;;19.90;99.90;;;;;;4952990;28;20126;-90
2022/07/14 11:26:41;;;;;;;1.95;0.77;;;19.80;99.90;;;;;;4934415;28;20039;-88
2022/07/14 11:29:11;;;;;;;3.40;1.13;;;19.90;99.90;;;;;;4950600;28;20400;-89
2022/07/14 11:31:47;;;;;;;3.70;1.17;;;20.20;99.90;;;;;;4938257;28;20709;-87
2022/07/14 11:37:11;;;;;;;3.42;1.15;;;20.30;99.90;;;;;;4955846;28;20137;-88
2022/07/14 11:39:39;;;;;;;3.10;0.75;;;20.50;99.90;;;;;;4943896;28;20050;-88
2022/07/14 11:42:08;;;;;;;2.53;0.70;;;20.50;99.90;;;;;;4959651;28;20507;-90
2022/07/14 11:44:40;;;;;;;5.97;0.90;;;20.70;99.90;;;;;;4956307;28;20368;-88
2022/07/14 11:47:13;;;;;;;2.80;0.82;;;20.80;99.90;;;;;;4941660;28;20061;-89
2022/07/14 11:49:40;;;;;;;5.75;1.10;;;21.30;99.90;;;;;;4964744;28;20066;-89
2022/07/14 11:52:11;;;;;;;3.60;1.00;;;21.30;99.90;;;;;;4942397;28;20038;-89
2022/07/14 11:54:38;;;;;;;2.35;1.00;;;21.40;99.90;;;;;;4945345;28;20061;-88
2022/07/14 11:57:10;;;;;;;2.47;0.73;;;22.20;99.90;;;;;;4944333;28;20118;-89
2022/07/14 11:59:39;;;;;;;5.50;1.25;;;21.20;99.90;;;;;;4928962;28;20446;-89
2022/07/14 12:02:20;;;;;;;3.08;0.90;;;21.50;99.90;;;;;;4943049;28;20051;-88
2022/07/14 12:04:58;;;;;;;3.30;0.73;;;22.50;99.90;;;;;;4968159;28;20057;-90
2022/07/14 12:07:26;;;;;;;2.90;1.20;;;22.80;99.90;;;;;;4941553;28;20051;-89
2022/07/14 12:09:53;;;;;;;1.65;0.57;;;22.20;99.90;;;;;;4943570;28;20246;-90
2022/07/14 12:12:20;;;;;;;3.00;1.10;;;21.80;99.90;;;;;;4943358;28;20094;-89
2022/07/14 12:14:49;;;;;;;1.92;0.70;;;22.20;99.90;;;;;;4944253;28;20065;-89
2022/07/14 12:17:17;;;;;;;3.83;0.95;;;22.20;99.90;;;;;;4975794;28;20035;-88
2022/07/14 12:19:44;;;;;;;4.10;0.98;;;21.60;99.90;;;;;;4932657;28;20050;-88
2022/07/14 12:22:11;;;;;;;2.95;0.85;;;22.10;99.90;;;;;;4943087;28;20044;-89
2022/07/14 12:24:36;;;;;;;2.22;0.90;;;22.20;99.90;;;;;;4934168;28;20043;-88
2022/07/14 12:27:07;;;;;;;3.95;1.05;;;21.90;99.90;;;;;;4943258;28;20116;-89
2022/07/14 12:29:34;;;;;;;5.78;1.00;;;21.80;99.90;;;;;;4943803;28;20039;-88
2022/07/14 12:32:01;;;;;;;2.15;0.90;;;21.00;99.90;;;;;;4951140;28;20428;-88
2022/07/14 12:34:28;;;;;;;3.28;0.70;;;21.40;99.90;;;;;;4942738;28;20503;-87
2022/07/14 12:36:57;;;;;;;3.80;0.70;;;20.90;99.90;;;;;;4942187;28;20050;-89
2022/07/14 12:39:24;;;;;;;2.85;0.95;;;20.70;99.90;;;;;;4938262;28;20233;-89
2022/07/14 12:41:50;;;;;;;2.95;0.68;;;20.40;99.90;;;;;;4968379;28;20043;-89
2022/07/14 12:44:17;;;;;;;1.67;0.63;;;20.60;99.90;;;;;;4942713;28;20042;-90
2022/07/14 12:46:43;;;;;;;2.88;0.77;;;20.30;99.90;;;;;;4948697;28;20051;-89
2022/07/14 12:49:09;;;;;;;4.15;1.05;;;20.20;99.90;;;;;;4942874;28;20506;-89
2022/07/14 12:51:43;;;;;;;3.13;0.90;;;19.90;99.90;;;;;;4946668;28;20215;-89
2022/07/14 12:54:34;;;;;;;3.00;0.80;;;20.10;99.90;;;;;;4937712;28;20051;-89
2022/07/14 12:57:00;;;;;;;3.50;0.80;;;19.80;99.90;;;;;;4945904;28;20312;-89
2022/07/14 12:59:32;;;;;;;3.25;0.90;;;19.60;99.90;;;;;;4941131;28;20078;-89
2022/07/14 13:02:03;;;;;;;3.63;1.00;;;19.60;99.90;;;;;;4944460;28;20097;-89
2022/07/14 13:04:30;;;;;;;3.95;1.00;;;19.60;99.90;;;;;;4952471;28;20086;-89
2022/07/14 13:07:12;;;;;;;4.60;1.00;;;19.40;99.90;;;;;;4945629;28;20054;-89
2022/07/14 13:09:38;;;;;;;3.22;0.90;;;19.60;99.90;;;;;;4955824;28;20050;-88